createdAt,value
2017-06-25T00:00:04.339Z,17.73
2017-06-25T00:01:05.639Z,17.79
2017-06-25T00:02:06.898Z,17.76
2017-06-25T00:03:08.151Z,17.76
2017-06-25T00:04:09.422Z,17.82
2017-06-25T00:05:10.687Z,17.74
2017-06-25T00:06:11.992Z,17.81
2017-06-25T00:07:13.238Z,17.82
2017-06-25T00:08:14.513Z,17.85
2017-06-25T00:09:15.772Z,17.87
2017-06-25T00:10:17.070Z,17.78
2017-06-25T00:11:18.357Z,17.78
2017-06-25T00:12:19.686Z,17.81
2017-06-25T00:13:21.073Z,17.79
2017-06-25T00:14:22.342Z,17.78
2017-06-25T00:15:23.631Z,17.76
2017-06-25T00:16:24.999Z,17.91
2017-06-25T00:17:26.426Z,17.78
2017-06-25T00:18:27.678Z,17.78
2017-06-25T00:19:28.920Z,17.81
2017-06-25T00:20:30.166Z,17.82
2017-06-25T00:21:31.495Z,17.82
2017-06-25T00:22:32.857Z,17.82
2017-06-25T00:23:34.113Z,17.79
2017-06-25T00:24:35.409Z,17.85
2017-06-25T00:25:36.648Z,17.76
2017-06-25T00:26:37.870Z,17.81
2017-06-25T00:27:39.173Z,17.76
2017-06-25T00:28:40.424Z,17.85
2017-06-25T00:29:41.768Z,17.82
2017-06-25T00:30:43.103Z,17.85
2017-06-25T00:31:44.348Z,17.88
2017-06-25T00:32:45.679Z,17.79
2017-06-25T00:33:46.936Z,17.79
2017-06-25T00:34:48.193Z,17.82
2017-06-25T00:35:49.601Z,17.78
2017-06-25T00:36:50.861Z,17.81
2017-06-25T00:37:52.153Z,17.79
2017-06-25T00:38:53.515Z,17.88
2017-06-25T00:39:54.861Z,17.79
2017-06-25T00:40:56.053Z,17.85
2017-06-25T00:41:57.327Z,17.79
2017-06-25T00:42:58.572Z,17.79
2017-06-25T00:43:59.818Z,17.76
2017-06-25T00:45:01.133Z,17.81
2017-06-25T00:46:02.390Z,17.84
2017-06-25T00:47:03.702Z,17.71
2017-06-25T00:48:04.964Z,17.79
2017-06-25T00:49:06.219Z,17.91
2017-06-25T00:50:07.488Z,17.78
2017-06-25T00:51:08.760Z,17.78
2017-06-25T00:52:10.110Z,17.84
2017-06-25T00:53:11.355Z,17.79
2017-06-25T00:54:12.608Z,17.85
2017-06-25T00:55:13.883Z,17.87
2017-06-25T00:56:15.126Z,17.82
2017-06-25T00:57:16.407Z,17.79
2017-06-25T00:58:17.636Z,17.82
2017-06-25T00:59:18.903Z,17.88
2017-06-25T01:00:20.253Z,17.78
2017-06-25T01:01:21.403Z,17.81
2017-06-25T01:02:22.657Z,17.87
2017-06-25T01:03:23.889Z,17.78
2017-06-25T01:04:25.168Z,17.79
2017-06-25T01:05:26.436Z,17.78
2017-06-25T01:06:27.754Z,17.78
2017-06-25T01:07:29.033Z,17.78
2017-06-25T01:08:30.261Z,17.76
2017-06-25T01:09:31.556Z,17.78
2017-06-25T01:10:32.815Z,17.85
2017-06-25T01:11:34.121Z,17.78
2017-06-25T01:12:35.499Z,17.78
2017-06-25T01:13:36.758Z,17.82
2017-06-25T01:14:38.011Z,17.79
2017-06-25T01:15:39.284Z,17.78
2017-06-25T01:16:40.545Z,17.88
2017-06-25T01:17:41.832Z,17.76
2017-06-25T01:18:43.119Z,17.78
2017-06-25T01:19:44.350Z,17.84
2017-06-25T01:20:45.842Z,17.78
2017-06-25T01:21:47.081Z,17.79
2017-06-25T01:22:48.355Z,17.81
2017-06-25T01:23:49.610Z,17.76
2017-06-25T01:24:50.867Z,17.74
2017-06-25T01:25:52.141Z,17.76
2017-06-25T01:26:53.381Z,17.67
2017-06-25T01:27:54.670Z,17.62
2017-06-25T01:28:55.929Z,17.69
2017-06-25T01:29:57.244Z,17.67
2017-06-25T01:30:58.511Z,17.63
2017-06-25T01:31:59.754Z,17.64
2017-06-25T01:33:01.081Z,17.66
2017-06-25T01:34:02.388Z,17.63
2017-06-25T01:35:03.653Z,17.59
2017-06-25T01:36:04.925Z,17.59
2017-06-25T01:37:06.207Z,17.64
2017-06-25T01:38:07.462Z,17.51
2017-06-25T01:39:08.797Z,17.53
2017-06-25T01:40:10.046Z,17.55
2017-06-25T01:41:11.326Z,17.54
2017-06-25T01:42:12.585Z,17.54
2017-06-25T01:43:13.861Z,17.5
2017-06-25T01:44:15.142Z,17.54
2017-06-25T01:45:16.438Z,17.54
2017-06-25T01:46:17.711Z,17.53
2017-06-25T01:47:18.972Z,17.64
2017-06-25T01:48:20.218Z,17.62
2017-06-25T01:49:21.478Z,17.53
2017-06-25T01:50:22.742Z,17.53
2017-06-25T01:51:24.060Z,17.55
2017-06-25T01:52:25.443Z,17.57
2017-06-25T01:53:26.702Z,17.64
2017-06-25T01:54:27.941Z,17.63
2017-06-25T01:55:29.391Z,17.63
2017-06-25T01:56:30.750Z,17.69
2017-06-25T01:57:31.990Z,17.63
2017-06-25T01:58:33.258Z,17.63
2017-06-25T01:59:34.580Z,17.7
2017-06-25T02:00:35.825Z,17.74
2017-06-25T02:01:37.164Z,17.71
2017-06-25T02:02:38.552Z,17.66
2017-06-25T02:03:39.811Z,17.73
2017-06-25T02:04:41.091Z,17.67
2017-06-25T02:05:42.375Z,17.71
2017-06-25T02:06:43.707Z,17.7
2017-06-25T02:07:45.002Z,17.74
2017-06-25T02:08:46.315Z,17.7
2017-06-25T02:09:47.579Z,17.67
2017-06-25T02:10:48.875Z,17.64
2017-06-25T02:11:50.108Z,17.66
2017-06-25T02:12:51.384Z,17.63
2017-06-25T02:13:52.604Z,17.64
2017-06-25T02:14:53.923Z,17.63
2017-06-25T02:15:55.291Z,17.63
2017-06-25T02:16:56.568Z,17.57
2017-06-25T02:17:57.839Z,17.62
2017-06-25T02:18:59.112Z,17.57
2017-06-25T02:20:00.413Z,17.57
2017-06-25T02:21:01.698Z,17.62
2017-06-25T02:22:03.006Z,17.63
2017-06-25T02:23:04.633Z,17.7
2017-06-25T02:24:06.173Z,17.71
2017-06-25T02:25:08.052Z,17.67
2017-06-25T02:26:10.016Z,17.69
2017-06-25T02:27:11.514Z,17.74
2017-06-25T02:28:12.804Z,17.74
2017-06-25T02:29:14.885Z,17.71
2017-06-25T02:30:16.214Z,17.78
2017-06-25T02:31:17.633Z,17.78
2017-06-25T02:32:18.870Z,17.74
2017-06-25T02:33:20.128Z,17.71
2017-06-25T02:34:21.392Z,17.81
2017-06-25T02:35:22.768Z,17.78
2017-06-25T02:36:24.049Z,17.74
2017-06-25T02:37:25.402Z,17.71
2017-06-25T02:38:26.653Z,17.81
2017-06-25T02:39:27.994Z,17.76
2017-06-25T02:40:29.333Z,17.73
2017-06-25T02:41:30.601Z,17.79
2017-06-25T02:42:31.875Z,17.74
2017-06-25T02:43:33.188Z,17.79
2017-06-25T02:44:34.450Z,17.74
2017-06-25T02:45:35.819Z,17.71
2017-06-25T02:46:37.085Z,17.79
2017-06-25T02:47:38.384Z,17.82
2017-06-25T02:48:39.627Z,17.85
2017-06-25T02:49:40.904Z,17.76
2017-06-25T02:50:42.159Z,17.69
2017-06-25T02:51:43.532Z,17.78
2017-06-25T02:52:44.779Z,17.74
2017-06-25T02:53:46.034Z,17.66
2017-06-25T02:54:47.321Z,17.73
2017-06-25T02:55:48.608Z,17.7
2017-06-25T02:56:49.865Z,17.66
2017-06-25T02:57:51.190Z,17.62
2017-06-25T02:58:52.562Z,17.57
2017-06-25T02:59:53.858Z,17.62
2017-06-25T03:00:55.131Z,17.62
2017-06-25T03:01:56.394Z,17.64
2017-06-25T03:02:57.629Z,17.64
2017-06-25T03:03:58.891Z,17.57
2017-06-25T03:05:00.149Z,17.59
2017-06-25T03:06:01.470Z,17.55
2017-06-25T03:07:02.731Z,17.59
2017-06-25T03:08:04.022Z,17.62
2017-06-25T03:09:05.305Z,17.57
2017-06-25T03:10:06.554Z,17.57
2017-06-25T03:11:07.885Z,17.59
2017-06-25T03:12:09.110Z,17.54
2017-06-25T03:13:10.397Z,17.54
2017-06-25T03:14:11.629Z,17.54
2017-06-25T03:15:12.894Z,17.57
2017-06-25T03:16:14.145Z,17.62
2017-06-25T03:17:15.435Z,17.51
2017-06-25T03:18:16.676Z,17.55
2017-06-25T03:19:17.927Z,17.54
2017-06-25T03:20:19.181Z,17.51
2017-06-25T03:21:20.455Z,17.55
2017-06-25T03:22:21.720Z,17.62
2017-06-25T03:23:23.042Z,17.63
2017-06-25T03:24:24.309Z,17.62
2017-06-25T03:25:25.611Z,17.55
2017-06-25T03:26:26.922Z,17.55
2017-06-25T03:27:28.172Z,17.59
2017-06-25T03:28:29.464Z,17.69
2017-06-25T03:29:30.732Z,17.57
2017-06-25T03:30:32.018Z,17.64
2017-06-25T03:31:33.397Z,17.66
2017-06-25T03:32:34.666Z,17.57
2017-06-25T03:33:35.938Z,17.57
2017-06-25T03:34:37.266Z,17.67
2017-06-25T03:35:38.528Z,17.63
2017-06-25T03:36:39.765Z,17.57
2017-06-25T03:37:41.036Z,17.59
2017-06-25T03:38:42.319Z,17.64
2017-06-25T03:39:43.615Z,17.64
2017-06-25T03:40:44.875Z,17.55
2017-06-25T03:41:46.126Z,17.63
2017-06-25T03:42:47.610Z,17.59
2017-06-25T03:43:48.894Z,17.63
2017-06-25T03:44:50.179Z,17.64
2017-06-25T03:45:51.440Z,17.63
2017-06-25T03:46:52.743Z,17.59
2017-06-25T03:47:54.048Z,17.59
2017-06-25T03:48:55.326Z,17.63
2017-06-25T03:49:56.606Z,17.62
2017-06-25T03:50:57.885Z,17.59
2017-06-25T03:51:59.140Z,17.63
2017-06-25T03:53:00.434Z,17.59
2017-06-25T03:54:01.660Z,17.57
2017-06-25T03:55:02.909Z,17.55
2017-06-25T03:56:04.179Z,17.64
2017-06-25T03:57:05.497Z,17.62
2017-06-25T03:58:06.751Z,17.62
2017-06-25T03:59:08.044Z,17.66
2017-06-25T04:00:09.311Z,17.55
2017-06-25T04:01:10.578Z,17.64
2017-06-25T04:02:11.853Z,17.55
2017-06-25T04:03:13.154Z,17.63
2017-06-25T04:04:14.585Z,17.57
2017-06-25T04:05:15.754Z,17.53
2017-06-25T04:06:17.009Z,17.51
2017-06-25T04:07:18.309Z,17.51
2017-06-25T04:08:19.539Z,17.47
2017-06-25T04:09:20.900Z,17.5
2017-06-25T04:10:22.149Z,17.47
2017-06-25T04:11:23.417Z,17.46
2017-06-25T04:12:24.693Z,17.47
2017-06-25T04:13:26.006Z,17.47
2017-06-25T04:14:27.313Z,17.4
2017-06-25T04:15:28.562Z,17.46
2017-06-25T04:16:29.787Z,17.48
2017-06-25T04:17:31.028Z,17.46
2017-06-25T04:18:32.301Z,17.47
2017-06-25T04:19:33.650Z,17.38
2017-06-25T04:20:35.039Z,17.51
2017-06-25T04:21:36.277Z,17.5
2017-06-25T04:22:37.525Z,17.5
2017-06-25T04:23:38.774Z,17.43
2017-06-25T04:24:40.027Z,17.51
2017-06-25T04:25:41.314Z,17.47
2017-06-25T04:26:42.593Z,17.57
2017-06-25T04:27:43.856Z,17.46
2017-06-25T04:28:45.137Z,17.55
2017-06-25T04:29:46.405Z,17.62
2017-06-25T04:30:47.743Z,17.54
2017-06-25T04:31:49.028Z,17.54
2017-06-25T04:32:50.291Z,17.53
2017-06-25T04:33:51.602Z,17.53
2017-06-25T04:34:52.839Z,17.51
2017-06-25T04:35:54.089Z,17.51
2017-06-25T04:36:55.391Z,17.5
2017-06-25T04:37:56.785Z,17.54
2017-06-25T04:38:57.993Z,17.55
2017-06-25T04:39:59.293Z,17.53
2017-06-25T04:41:00.513Z,17.55
2017-06-25T04:42:01.770Z,17.53
2017-06-25T04:43:03.045Z,17.46
2017-06-25T04:44:04.359Z,17.46
2017-06-25T04:45:05.630Z,17.47
2017-06-25T04:46:06.931Z,17.48
2017-06-25T04:47:08.178Z,17.43
2017-06-25T04:48:09.450Z,17.46
2017-06-25T04:49:10.709Z,17.47
2017-06-25T04:50:12.087Z,17.5
2017-06-25T04:51:13.331Z,17.46
2017-06-25T04:52:14.669Z,17.5
2017-06-25T04:53:15.986Z,17.51
2017-06-25T04:54:17.217Z,17.51
2017-06-25T04:55:18.442Z,17.55
2017-06-25T04:56:19.701Z,17.53
2017-06-25T04:57:20.992Z,17.55
2017-06-25T04:58:22.239Z,17.55
2017-06-25T04:59:23.532Z,17.55
2017-06-25T05:00:24.791Z,17.57
2017-06-25T05:01:26.024Z,17.54
2017-06-25T05:02:27.457Z,17.55
2017-06-25T05:03:28.791Z,17.63
2017-06-25T05:04:30.044Z,17.57
2017-06-25T05:05:31.378Z,17.62
2017-06-25T05:06:32.637Z,17.57
2017-06-25T05:07:33.944Z,17.59
2017-06-25T05:08:35.313Z,17.66
2017-06-25T05:09:36.654Z,17.62
2017-06-25T05:10:37.899Z,17.73
2017-06-25T05:11:39.140Z,17.64
2017-06-25T05:12:40.387Z,17.7
2017-06-25T05:13:41.675Z,17.78
2017-06-25T05:14:43.097Z,17.69
2017-06-25T05:15:44.453Z,17.73
2017-06-25T05:16:45.586Z,17.66
2017-06-25T05:17:46.851Z,17.73
2017-06-25T05:18:48.112Z,17.7
2017-06-25T05:19:49.361Z,17.66
2017-06-25T05:20:50.654Z,17.59
2017-06-25T05:21:51.926Z,17.57
2017-06-25T05:22:53.174Z,17.59
2017-06-25T05:23:54.439Z,17.66
2017-06-25T05:24:55.722Z,17.64
2017-06-25T05:25:57.035Z,17.63
2017-06-25T05:26:58.284Z,17.62
2017-06-25T05:27:59.545Z,17.64
2017-06-25T05:29:00.832Z,17.7
2017-06-25T05:30:02.098Z,17.64
2017-06-25T05:31:03.410Z,17.67
2017-06-25T05:32:04.696Z,17.7
2017-06-25T05:33:05.952Z,17.67
2017-06-25T05:34:07.237Z,17.66
2017-06-25T05:35:08.526Z,17.67
2017-06-25T05:36:09.810Z,17.63
2017-06-25T05:37:11.104Z,17.67
2017-06-25T05:38:12.343Z,17.63
2017-06-25T05:39:13.682Z,17.67
2017-06-25T05:40:14.933Z,17.64
2017-06-25T05:41:16.201Z,17.66
2017-06-25T05:42:17.451Z,17.62
2017-06-25T05:43:18.774Z,17.66
2017-06-25T05:44:20.033Z,17.63
2017-06-25T05:45:21.300Z,17.55
2017-06-25T05:46:22.585Z,17.63
2017-06-25T05:47:23.846Z,17.69
2017-06-25T05:48:25.151Z,17.69
2017-06-25T05:49:26.383Z,17.7
2017-06-25T05:50:27.720Z,17.69
2017-06-25T05:51:29.004Z,17.88
2017-06-25T05:52:30.283Z,17.79
2017-06-25T05:53:31.549Z,17.91
2017-06-25T05:54:32.879Z,17.84
2017-06-25T05:55:34.174Z,17.87
2017-06-25T05:56:35.432Z,17.89
2017-06-25T05:57:36.729Z,17.94
2017-06-25T05:58:37.972Z,18.02
2017-06-25T05:59:39.268Z,18.04
2017-06-25T06:00:40.516Z,17.99
2017-06-25T06:01:41.857Z,18.03
2017-06-25T06:02:43.098Z,18.06
2017-06-25T06:03:44.379Z,18.13
2017-06-25T06:04:45.656Z,18.18
2017-06-25T06:05:46.887Z,18.29
2017-06-25T06:06:48.151Z,18.25
2017-06-25T06:07:49.415Z,18.29
2017-06-25T06:08:50.734Z,18.4
2017-06-25T06:09:52.069Z,18.44
2017-06-25T06:10:53.404Z,18.36
2017-06-25T06:11:54.661Z,18.36
2017-06-25T06:12:55.934Z,18.42
2017-06-25T06:13:57.211Z,18.37
2017-06-25T06:14:58.509Z,18.46
2017-06-25T06:15:59.767Z,18.39
2017-06-25T06:17:01.018Z,18.37
2017-06-25T06:18:02.267Z,18.52
2017-06-25T06:19:03.537Z,18.44
2017-06-25T06:20:04.843Z,18.55
2017-06-25T06:21:06.118Z,18.55
2017-06-25T06:22:07.391Z,18.72
2017-06-25T06:23:08.646Z,18.62
2017-06-25T06:24:09.899Z,18.76
2017-06-25T06:25:11.238Z,18.74
2017-06-25T06:26:12.467Z,18.86
2017-06-25T06:27:13.748Z,18.94
2017-06-25T06:28:15.039Z,19.01
2017-06-25T06:29:16.322Z,19.15
2017-06-25T06:30:17.656Z,19.21
2017-06-25T06:31:18.976Z,19.28
2017-06-25T06:32:20.227Z,19.39
2017-06-25T06:33:21.496Z,19.32
2017-06-25T06:34:22.808Z,19.47
2017-06-25T06:35:24.112Z,19.47
2017-06-25T06:36:25.348Z,19.53
2017-06-25T06:37:26.731Z,19.46
2017-06-25T06:38:28.104Z,19.47
2017-06-25T06:39:29.402Z,19.54
2017-06-25T06:40:30.644Z,19.65
2017-06-25T06:41:31.933Z,19.53
2017-06-25T06:42:33.279Z,19.7
2017-06-25T06:43:34.551Z,19.83
2017-06-25T06:44:35.854Z,19.78
2017-06-25T06:45:37.156Z,19.79
2017-06-25T06:46:38.392Z,19.78
2017-06-25T06:47:39.687Z,19.7
2017-06-25T06:48:40.956Z,19.66
2017-06-25T06:49:42.211Z,19.61
2017-06-25T06:50:43.459Z,19.54
2017-06-25T06:51:44.772Z,19.53
2017-06-25T06:52:46.012Z,19.55
2017-06-25T06:53:47.295Z,19.51
2017-06-25T06:54:48.556Z,19.5
2017-06-25T06:55:49.945Z,19.55
2017-06-25T06:56:51.188Z,19.51
2017-06-25T06:57:52.565Z,19.48
2017-06-25T06:58:53.820Z,19.47
2017-06-25T06:59:55.127Z,19.48
2017-06-25T07:00:56.504Z,19.46
2017-06-25T07:01:57.739Z,19.35
2017-06-25T07:02:59.014Z,19.4
2017-06-25T07:04:00.387Z,19.39
2017-06-25T07:05:01.674Z,19.5
2017-06-25T07:06:02.953Z,19.48
2017-06-25T07:07:04.352Z,19.6
2017-06-25T07:08:05.612Z,19.47
2017-06-25T07:09:06.896Z,19.63
2017-06-25T07:10:08.152Z,19.72
2017-06-25T07:11:09.416Z,19.78
2017-06-25T07:12:10.690Z,19.79
2017-06-25T07:13:12.006Z,19.78
2017-06-25T07:14:13.264Z,19.8
2017-06-25T07:15:14.544Z,19.84
2017-06-25T07:16:15.857Z,20.02
2017-06-25T07:17:17.108Z,20.18
2017-06-25T07:18:18.402Z,20.28
2017-06-25T07:19:19.710Z,20.25
2017-06-25T07:20:20.988Z,20.25
2017-06-25T07:21:22.238Z,20.16
2017-06-25T07:22:23.555Z,20.2
2017-06-25T07:23:24.854Z,20.27
2017-06-25T07:24:26.131Z,20.16
2017-06-25T07:25:27.416Z,20.2
2017-06-25T07:26:28.749Z,20.15
2017-06-25T07:27:29.952Z,20.24
2017-06-25T07:28:31.295Z,20.23
2017-06-25T07:29:32.545Z,20.27
2017-06-25T07:30:33.836Z,20.35
2017-06-25T07:31:35.172Z,20.43
2017-06-25T07:32:36.545Z,20.43
2017-06-25T07:33:37.798Z,20.42
2017-06-25T07:34:39.146Z,20.38
2017-06-25T07:35:40.444Z,20.43
2017-06-25T07:36:41.698Z,20.35
2017-06-25T07:37:42.977Z,20.33
2017-06-25T07:38:44.220Z,20.24
2017-06-25T07:39:45.491Z,20.09
2017-06-25T07:40:46.748Z,20.15
2017-06-25T07:41:48.118Z,20.18
2017-06-25T07:42:49.418Z,20.15
2017-06-25T07:43:50.759Z,20.27
2017-06-25T07:44:52.029Z,20.42
2017-06-25T07:45:53.391Z,20.41
2017-06-25T07:46:54.642Z,20.49
2017-06-25T07:47:55.961Z,20.46
2017-06-25T07:48:57.382Z,20.42
2017-06-25T07:49:58.635Z,20.31
2017-06-25T07:50:59.954Z,20.12
2017-06-25T07:52:01.203Z,20.15
2017-06-25T07:53:02.508Z,20.15
2017-06-25T07:54:03.948Z,20.02
2017-06-25T07:55:05.225Z,20.02
2017-06-25T07:56:06.540Z,19.94
2017-06-25T07:57:07.878Z,19.97
2017-06-25T07:58:09.154Z,20.2
2017-06-25T07:59:10.542Z,20.31
2017-06-25T08:00:11.820Z,20.39
2017-06-25T08:01:13.088Z,20.39
2017-06-25T08:02:14.355Z,20.51
2017-06-25T08:03:15.674Z,20.56
2017-06-25T08:04:16.978Z,20.74
2017-06-25T08:05:18.286Z,20.71
2017-06-25T08:06:19.598Z,20.59
2017-06-25T08:07:20.847Z,20.64
2017-06-25T08:08:22.205Z,20.61
2017-06-25T08:09:23.505Z,20.41
2017-06-25T08:10:24.906Z,20.39
2017-06-25T08:11:26.172Z,20.33
2017-06-25T08:12:27.510Z,20.1
2017-06-25T08:13:28.775Z,20.03
2017-06-25T08:14:30.051Z,19.9
2017-06-25T08:15:31.353Z,19.63
2017-06-25T08:16:32.640Z,19.48
2017-06-25T08:17:33.921Z,19.57
2017-06-25T08:18:35.235Z,19.36
2017-06-25T08:19:36.490Z,19.24
2017-06-25T08:20:37.758Z,19.17
2017-06-25T08:21:39.045Z,18.97
2017-06-25T08:22:40.324Z,18.86
2017-06-25T08:23:41.629Z,18.92
2017-06-25T08:24:42.860Z,18.76
2017-06-25T08:25:44.153Z,18.72
2017-06-25T08:26:45.438Z,18.67
2017-06-25T08:27:46.753Z,18.61
2017-06-25T08:28:48.001Z,18.7
2017-06-25T08:29:49.282Z,18.62
2017-06-25T08:30:50.545Z,18.59
2017-06-25T08:31:51.809Z,18.61
2017-06-25T08:32:53.048Z,18.68
2017-06-25T08:33:54.347Z,18.58
2017-06-25T08:34:55.617Z,18.64
2017-06-25T08:35:56.869Z,18.73
2017-06-25T08:36:58.172Z,18.67
2017-06-25T08:37:59.452Z,18.68
2017-06-25T08:39:00.725Z,18.72
2017-06-25T08:40:02.068Z,18.62
2017-06-25T08:41:03.401Z,18.59
2017-06-25T08:42:04.655Z,18.54
2017-06-25T08:43:05.910Z,18.52
2017-06-25T08:44:07.212Z,18.55
2017-06-25T08:45:08.543Z,18.52
2017-06-25T08:46:09.797Z,18.55
2017-06-25T08:47:11.063Z,18.57
2017-06-25T08:48:12.318Z,18.64
2017-06-25T08:49:13.573Z,18.64
2017-06-25T08:50:14.832Z,18.59
2017-06-25T08:51:16.077Z,18.7
2017-06-25T08:52:17.387Z,18.68
2017-06-25T08:53:18.709Z,18.87
2017-06-25T08:54:19.955Z,18.87
2017-06-25T08:55:21.218Z,18.99
2017-06-25T08:56:22.550Z,19.08
2017-06-25T08:57:23.837Z,19.14
2017-06-25T08:58:25.124Z,19.24
2017-06-25T08:59:26.379Z,19.36
2017-06-25T09:00:27.655Z,19.35
2017-06-25T09:01:28.927Z,19.54
2017-06-25T09:02:30.187Z,19.7
2017-06-25T09:03:31.437Z,20.1
2017-06-25T09:04:32.714Z,20.58
2017-06-25T09:05:33.991Z,21.23
2017-06-25T09:06:35.304Z,21.74
2017-06-25T09:07:36.587Z,22.28
2017-06-25T09:08:37.855Z,22.75
2017-06-25T09:09:39.191Z,23.39
2017-06-25T09:10:40.472Z,24.2
2017-06-25T09:11:41.798Z,25.39
2017-06-25T09:12:43.075Z,26.21
2017-06-25T09:13:44.345Z,26.67
2017-06-25T09:14:45.609Z,26.99
2017-06-25T09:15:46.947Z,27.02
2017-06-25T09:16:48.234Z,27.13
2017-06-25T09:17:49.494Z,26.92
2017-06-25T09:18:50.753Z,26.72
2017-06-25T09:19:52.059Z,26.28
2017-06-25T09:20:53.369Z,25.86
2017-06-25T09:21:54.655Z,25.65
2017-06-25T09:22:55.951Z,25.25
2017-06-25T09:23:57.234Z,24.91
2017-06-25T09:24:58.489Z,24.61
2017-06-25T09:25:59.760Z,24.29
2017-06-25T09:27:01.072Z,23.86
2017-06-25T09:28:02.365Z,23.65
2017-06-25T09:29:03.673Z,23.19
2017-06-25T09:30:04.924Z,22.83
2017-06-25T09:31:06.221Z,22.5
2017-06-25T09:32:07.538Z,22.28
2017-06-25T09:33:08.813Z,22.14
2017-06-25T09:34:10.084Z,21.91
2017-06-25T09:35:11.346Z,21.74
2017-06-25T09:36:12.715Z,21.71
2017-06-25T09:37:14.043Z,21.75
2017-06-25T09:38:15.326Z,21.72
2017-06-25T09:39:16.608Z,21.78
2017-06-25T09:40:17.846Z,21.88
2017-06-25T09:41:19.105Z,21.94
2017-06-25T09:42:20.394Z,22.28
2017-06-25T09:43:21.647Z,22.41
2017-06-25T09:44:22.939Z,22.65
2017-06-25T09:45:24.217Z,22.72
2017-06-25T09:46:25.470Z,22.9
2017-06-25T09:47:26.801Z,23.02
2017-06-25T09:48:28.034Z,23.17
2017-06-25T09:49:29.473Z,23.11
2017-06-25T09:50:30.721Z,23.17
2017-06-25T09:51:31.993Z,23.32
2017-06-25T09:52:33.271Z,23.52
2017-06-25T09:53:34.581Z,23.58
2017-06-25T09:54:35.798Z,23.6
2017-06-25T09:55:37.136Z,23.65
2017-06-25T09:56:38.386Z,23.75
2017-06-25T09:57:39.688Z,23.87
2017-06-25T09:58:40.986Z,23.86
2017-06-25T09:59:42.213Z,23.89
2017-06-25T10:00:43.526Z,23.85
2017-06-25T10:01:44.824Z,23.79
2017-06-25T10:02:46.056Z,23.53
2017-06-25T10:03:47.369Z,23.34
2017-06-25T10:04:48.636Z,23.23
2017-06-25T10:05:49.927Z,23.15
2017-06-25T10:06:51.208Z,22.78
2017-06-25T10:07:52.534Z,22.57
2017-06-25T10:08:53.823Z,22.31
2017-06-25T10:09:55.060Z,22.09
2017-06-25T10:10:56.337Z,21.74
2017-06-25T10:11:57.652Z,21.5
2017-06-25T10:12:58.933Z,21.27
2017-06-25T10:14:00.227Z,20.93
2017-06-25T10:15:01.497Z,20.65
2017-06-25T10:16:02.772Z,20.51
2017-06-25T10:17:04.032Z,20.25
2017-06-25T10:18:05.280Z,20.1
2017-06-25T10:19:06.642Z,20.05
2017-06-25T10:20:07.944Z,20.09
2017-06-25T10:21:09.179Z,19.98
2017-06-25T10:22:10.432Z,19.83
2017-06-25T10:23:11.780Z,19.7
2017-06-25T10:24:13.100Z,19.57
2017-06-25T10:25:14.345Z,19.33
2017-06-25T10:26:15.594Z,19.17
2017-06-25T10:27:16.894Z,19.06
2017-06-25T10:28:18.152Z,18.98
2017-06-25T10:29:19.409Z,18.84
2017-06-25T10:30:20.682Z,18.87
2017-06-25T10:31:22.031Z,18.79
2017-06-25T10:32:23.358Z,18.73
2017-06-25T10:33:24.587Z,18.74
2017-06-25T10:34:25.861Z,18.73
2017-06-25T10:35:27.222Z,18.72
2017-06-25T10:36:28.450Z,18.77
2017-06-25T10:37:29.720Z,18.74
2017-06-25T10:38:30.997Z,18.74
2017-06-25T10:39:32.252Z,18.83
2017-06-25T10:40:33.530Z,18.9
2017-06-25T10:41:34.814Z,18.86
2017-06-25T10:42:36.094Z,18.79
2017-06-25T10:43:37.464Z,18.8
2017-06-25T10:44:38.805Z,18.91
2017-06-25T10:45:40.028Z,18.95
2017-06-25T10:46:41.354Z,18.9
2017-06-25T10:47:42.625Z,18.92
2017-06-25T10:48:43.889Z,19.01
2017-06-25T10:49:45.140Z,18.99
2017-06-25T10:50:46.468Z,19.02
2017-06-25T10:51:47.740Z,19.11
2017-06-25T10:52:49.002Z,19.14
2017-06-25T10:53:50.246Z,19.23
2017-06-25T10:54:51.495Z,19.28
2017-06-25T10:55:52.765Z,19.32
2017-06-25T10:56:54.093Z,19.36
2017-06-25T10:57:55.334Z,19.31
2017-06-25T10:58:56.721Z,19.53
2017-06-25T10:59:58.002Z,19.63
2017-06-25T11:00:59.273Z,19.76
2017-06-25T11:02:00.530Z,19.9
2017-06-25T11:03:01.799Z,19.97
2017-06-25T11:04:03.092Z,20.03
2017-06-25T11:05:04.491Z,20.15
2017-06-25T11:06:05.784Z,20.21
2017-06-25T11:07:07.049Z,20.27
2017-06-25T11:08:08.296Z,20.31
2017-06-25T11:09:09.613Z,20.35
2017-06-25T11:10:10.870Z,20.35
2017-06-25T11:11:12.165Z,20.51
2017-06-25T11:12:13.432Z,20.46
2017-06-25T11:13:14.810Z,20.58
2017-06-25T11:14:15.992Z,20.68
2017-06-25T11:15:17.268Z,20.69
2017-06-25T11:16:18.576Z,20.86
2017-06-25T11:17:19.843Z,20.98
2017-06-25T11:18:21.161Z,21.05
2017-06-25T11:19:22.432Z,21.14
2017-06-25T11:20:23.754Z,21.21
2017-06-25T11:21:24.990Z,21.35
2017-06-25T11:22:26.268Z,21.48
2017-06-25T11:23:27.567Z,21.66
2017-06-25T11:24:28.869Z,21.76
2017-06-25T11:25:30.221Z,22.1
2017-06-25T11:26:31.477Z,22.27
2017-06-25T11:27:32.735Z,22.5
2017-06-25T11:28:33.970Z,22.57
2017-06-25T11:29:35.349Z,22.64
2017-06-25T11:30:36.632Z,22.75
2017-06-25T11:31:37.883Z,22.68
2017-06-25T11:32:39.197Z,22.64
2017-06-25T11:33:40.516Z,22.92
2017-06-25T11:34:41.790Z,22.94
2017-06-25T11:35:43.048Z,23.2
2017-06-25T11:36:44.288Z,23.19
2017-06-25T11:37:45.587Z,23.15
2017-06-25T11:38:46.821Z,23.22
2017-06-25T11:39:48.100Z,23.32
2017-06-25T11:40:49.459Z,23.67
2017-06-25T11:41:50.716Z,23.75
2017-06-25T11:42:52.002Z,23.82
2017-06-25T11:43:53.304Z,23.77
2017-06-25T11:44:54.551Z,23.82
2017-06-25T11:45:55.923Z,23.94
2017-06-25T11:46:57.323Z,23.94
2017-06-25T11:47:58.604Z,23.87
2017-06-25T11:48:59.886Z,24.02
2017-06-25T11:50:01.130Z,24.1
2017-06-25T11:51:02.384Z,24.02
2017-06-25T11:52:03.636Z,24.01
2017-06-25T11:53:04.915Z,23.8
2017-06-25T11:54:06.206Z,23.71
2017-06-25T11:55:07.431Z,23.72
2017-06-25T11:56:08.735Z,23.49
2017-06-25T11:57:10.115Z,23.26
2017-06-25T11:58:11.501Z,23.01
2017-06-25T11:59:12.669Z,22.94
2017-06-25T12:00:13.940Z,22.57
2017-06-25T12:01:15.273Z,22.53
2017-06-25T12:02:16.524Z,22.37
2017-06-25T12:03:17.801Z,22.27
2017-06-25T12:04:19.147Z,22.29
2017-06-25T12:05:20.400Z,22.16
2017-06-25T12:06:21.646Z,22.12
2017-06-25T12:07:22.915Z,22.1
2017-06-25T12:08:24.236Z,22.1
2017-06-25T12:09:25.536Z,22.07
2017-06-25T12:10:27.160Z,22.09
2017-06-25T12:11:28.427Z,21.94
2017-06-25T12:12:29.721Z,21.95
2017-06-25T12:13:30.977Z,22.04
2017-06-25T12:14:32.229Z,21.95
2017-06-25T12:15:33.476Z,21.99
2017-06-25T12:16:34.727Z,21.92
2017-06-25T12:17:36.116Z,21.91
2017-06-25T12:18:37.422Z,22.07
2017-06-25T12:19:38.684Z,21.97
2017-06-25T12:20:39.990Z,22.07
2017-06-25T12:21:41.299Z,22.12
2017-06-25T12:22:42.511Z,22.1
2017-06-25T12:23:44.017Z,22.14
2017-06-25T12:24:45.469Z,22.14
2017-06-25T12:25:46.729Z,22.29
2017-06-25T12:26:48.136Z,22.43
2017-06-25T12:27:49.419Z,22.53
2017-06-25T12:28:50.683Z,22.56
2017-06-25T12:29:51.991Z,22.69
2017-06-25T12:30:53.317Z,22.72
2017-06-25T12:31:54.567Z,22.83
2017-06-25T12:32:55.920Z,22.65
2017-06-25T12:33:57.188Z,22.56
2017-06-25T12:34:58.453Z,22.52
2017-06-25T12:35:59.706Z,22.53
2017-06-25T12:37:00.981Z,22.68
2017-06-25T12:38:02.264Z,22.72
2017-06-25T12:39:03.541Z,22.59
2017-06-25T12:40:04.816Z,22.37
2017-06-25T12:41:06.094Z,22.34
2017-06-25T12:42:07.443Z,22.12
2017-06-25T12:43:08.675Z,22.12
2017-06-25T12:44:09.932Z,22.16
2017-06-25T12:45:11.237Z,22.29
2017-06-25T12:46:12.492Z,22.28
2017-06-25T12:47:13.817Z,22.2
2017-06-25T12:48:15.168Z,22.19
2017-06-25T12:49:16.431Z,22.29
2017-06-25T12:50:17.728Z,22.37
2017-06-25T12:51:18.993Z,22.49
2017-06-25T12:52:20.331Z,22.44
2017-06-25T12:53:21.553Z,22.47
2017-06-25T12:54:22.843Z,22.41
2017-06-25T12:55:24.383Z,22.28
2017-06-25T12:56:25.634Z,22.16
2017-06-25T12:57:26.899Z,21.98
2017-06-25T12:58:28.169Z,21.82
2017-06-25T12:59:29.444Z,21.35
2017-06-25T13:00:30.675Z,21.05
2017-06-25T13:01:31.986Z,20.84
2017-06-25T13:02:33.261Z,20.66
2017-06-25T13:03:34.555Z,20.56
2017-06-25T13:04:35.867Z,20.42
2017-06-25T13:05:37.111Z,20.31
2017-06-25T13:06:38.468Z,20.05
2017-06-25T13:07:39.740Z,19.86
2017-06-25T13:08:41.017Z,19.83
2017-06-25T13:09:42.403Z,19.66
2017-06-25T13:10:43.840Z,19.58